Swans Island, ME (04685)

2:15 AM EDT on August 28, 2015 (GMT -0400)
Goose Pond Rd | | Change Station
CLOSE
Current Station
Personal Weather Station
Location: Swan's Island, ME
Elevation: 92 ft
Nearby Weather Stations

Elev 92 ft 44.16 °N, 68.42 °W | Updated 5 seconds ago

Clear
Clear
56.3 °F
Feels Like 56.3 °F
N
0.0
Wind Variable Wind from SSW
Gusts 0.0 mph

Today
High -- | Low -- °F
--% Chance of Precip.
Yesterday
High -- | Low -- °F
Precip. -- in
5:51 AM 7:17 PM
Waxing Gibbous, 97% visible
Pressure 30.02 in
Visibility 10.0 miles
Clouds Clear
Dew Point Not available.
Humidity Not available.
Rainfall 0.00 in
Snow Depth Not available.
UV 0 out of 12
Pollen 7.20 out of 12
Air Quality Not available.
Flu Activity Not available.
METAR KBHB 280555Z 00000KT 10SM CLR 14/14 A3002 RMK AO1 10210 20140 52010
Pressure 30.02 in
Visibility 10.0 miles
Clouds Clear
Dew Point Not available.
Humidity Not available.
Rainfall 0.00 in
Snow Depth Not available.
UV 0 out of 12
Pollen 7.20 out of 12
Air Quality Not available.
Flu Activity Not available.
METAR KBHB 280555Z 00000KT 10SM CLR 14/14 A3002 RMK AO1 10210 20140 52010

10-Day Weather Forecast

×

Almanac

Astronomy

Aug. 28, 2015 Rise Set
Actual Time
Civil Twilight
Nautical Twilight
Astronomical Twilight
Moon
Length of Visible Light
Length of Day
Tomorrow will be .
, % of the Moon is Illuminated

Today's Extremes

State Highs State Lows

Community

WunderPhotos

Upload Photos

1,850,341 photos uploaded!

WunderBlogs® & News

Nearby

Air Quality

  Air Quality AQ Index Pollutant
Not available.

Snow Depth

Station Depth Elevation

Earthquake Activity

City Distance Mag. Time & Date
Minimum magnitude displayed is 2.5.

Coastal Water Temperatures

Place Temperature

Stations

Nearby Weather Stations

Station Location Temp. Windchill Dew Point Humidity Wind Precip. Elev Updated Type